createdAt,value
2018-05-24T00:02:15.096Z,75.22
2018-05-24T00:04:41.387Z,75.03
2018-05-24T00:07:07.676Z,75.49
2018-05-24T00:09:33.964Z,76.27
2018-05-24T00:12:00.254Z,77.44
2018-05-24T00:14:26.547Z,77.58
2018-05-24T00:16:52.839Z,77.82
2018-05-24T00:19:19.129Z,77.52
2018-05-24T00:21:45.422Z,77.08
2018-05-24T00:24:11.725Z,76.23
2018-05-24T00:26:38.011Z,75.66
2018-05-24T00:29:04.306Z,74.99
2018-05-24T00:31:30.611Z,74.56
2018-05-24T00:33:56.914Z,74.86
2018-05-24T00:36:23.205Z,74.93
2018-05-24T00:38:49.498Z,74.52
2018-05-24T00:41:15.828Z,74.43
2018-05-24T00:43:42.124Z,74.21
2018-05-24T00:46:08.418Z,73.85
2018-05-24T00:48:34.755Z,74.12
2018-05-24T00:51:01.056Z,73.83
2018-05-24T00:53:27.346Z,74.24
2018-05-24T00:55:53.648Z,74.60
2018-05-24T00:58:19.943Z,74.86
2018-05-24T01:00:46.235Z,74.89
2018-05-24T01:03:12.567Z,74.62
2018-05-24T01:05:38.862Z,74.90
2018-05-24T01:08:05.160Z,74.09
2018-05-24T01:10:31.457Z,74.22
2018-05-24T01:12:57.753Z,74.10
2018-05-24T01:15:24.045Z,74.63
2018-05-24T01:17:50.342Z,74.13
2018-05-24T01:20:16.633Z,74.16
2018-05-24T01:22:42.931Z,73.99
2018-05-24T01:25:09.275Z,74.12
2018-05-24T01:27:35.565Z,73.55
2018-05-24T01:30:01.913Z,73.27
2018-05-24T01:32:28.207Z,73.69
2018-05-24T01:34:54.508Z,73.76
2018-05-24T01:37:20.803Z,74.13
2018-05-24T01:39:47.097Z,74.00
2018-05-24T01:42:13.401Z,73.73
2018-05-24T01:44:39.696Z,73.91
2018-05-24T01:47:06.028Z,74.47
2018-05-24T01:49:32.281Z,73.89
2018-05-24T01:51:58.579Z,73.09
2018-05-24T01:54:24.863Z,73.98
2018-05-24T01:56:51.151Z,74.72
2018-05-24T01:59:17.439Z,74.60
2018-05-24T02:01:43.730Z,74.61
2018-05-24T02:04:10.023Z,74.92
2018-05-24T02:06:36.310Z,74.61
2018-05-24T02:09:02.600Z,74.57
2018-05-24T02:11:28.940Z,74.27
2018-05-24T02:13:55.275Z,74.29
2018-05-24T02:16:21.565Z,74.42
2018-05-24T02:18:47.853Z,74.61
2018-05-24T02:21:14.144Z,74.78
2018-05-24T02:23:40.435Z,74.95
2018-05-24T02:26:06.728Z,75.05
2018-05-24T02:28:33.016Z,74.63
2018-05-24T02:30:59.313Z,74.69
2018-05-24T02:33:25.595Z,74.65
2018-05-24T02:35:51.951Z,74.57
2018-05-24T02:38:18.196Z,74.19
2018-05-24T02:40:44.491Z,74.57
2018-05-24T02:43:10.780Z,74.50
2018-05-24T02:45:37.080Z,74.82
2018-05-24T02:48:03.374Z,74.90
2018-05-24T02:50:29.681Z,75.01
2018-05-24T02:52:56.024Z,75.12
2018-05-24T02:55:22.309Z,75.22
2018-05-24T02:57:48.601Z,75.28
2018-05-24T03:00:14.967Z,75.06
2018-05-24T03:02:41.252Z,74.88
2018-05-24T03:05:07.547Z,75.04
2018-05-24T03:07:33.831Z,75.33
2018-05-24T03:10:00.133Z,76.00
2018-05-24T03:12:26.429Z,76.66
2018-05-24T03:14:52.720Z,76.66
2018-05-24T03:17:19.015Z,76.78
2018-05-24T03:19:45.345Z,76.38
2018-05-24T03:22:11.633Z,76.60
2018-05-24T03:24:37.923Z,76.39
2018-05-24T03:27:04.214Z,76.63
2018-05-24T03:29:30.504Z,76.18
2018-05-24T03:31:56.797Z,75.54
2018-05-24T03:34:23.083Z,75.45
2018-05-24T03:36:49.373Z,75.04
2018-05-24T03:39:15.664Z,75.49
2018-05-24T03:41:41.957Z,75.32
2018-05-24T03:44:08.253Z,75.54
2018-05-24T03:46:34.539Z,74.86
2018-05-24T03:49:00.832Z,75.21
2018-05-24T03:51:27.119Z,75.29
2018-05-24T03:53:53.411Z,74.72
2018-05-24T03:56:19.704Z,74.64
2018-05-24T03:58:45.988Z,74.97
2018-05-24T04:01:12.277Z,74.75
2018-05-24T04:03:38.568Z,74.76
2018-05-24T04:06:04.905Z,75.17
2018-05-24T04:08:31.210Z,74.62
2018-05-24T04:10:57.498Z,74.38
2018-05-24T04:13:23.793Z,73.84
2018-05-24T04:15:50.079Z,73.69
2018-05-24T04:18:16.372Z,73.71
2018-05-24T04:20:42.666Z,73.65
2018-05-24T04:23:08.994Z,73.64
2018-05-24T04:25:35.250Z,73.73
2018-05-24T04:28:01.546Z,73.71
2018-05-24T04:30:27.838Z,73.52
2018-05-24T04:32:54.159Z,73.14
2018-05-24T04:35:20.426Z,74.15
2018-05-24T04:37:46.716Z,73.89
2018-05-24T04:40:13.022Z,73.72
2018-05-24T04:42:39.323Z,73.65
2018-05-24T04:45:05.620Z,73.57
2018-05-24T04:47:31.919Z,73.51
2018-05-24T04:49:58.215Z,73.83
2018-05-24T04:52:24.504Z,74.09
2018-05-24T04:54:50.809Z,73.59
2018-05-24T04:57:17.102Z,72.50
2018-05-24T04:59:43.387Z,71.77
2018-05-24T05:02:09.676Z,71.96
2018-05-24T05:04:35.963Z,71.94
2018-05-24T05:07:02.255Z,72.01
2018-05-24T05:09:28.624Z,72.07
2018-05-24T05:11:54.945Z,71.75
2018-05-24T05:14:21.238Z,71.54
2018-05-24T05:16:47.529Z,70.98
2018-05-24T05:19:13.834Z,71.24
2018-05-24T05:21:40.120Z,71.13
2018-05-24T05:24:06.423Z,70.82
2018-05-24T05:26:32.707Z,70.85
2018-05-24T05:28:59.038Z,70.52
2018-05-24T05:31:25.323Z,70.07
2018-05-24T05:33:51.611Z,69.40
2018-05-24T05:36:17.899Z,66.46
2018-05-24T05:38:44.199Z,62.57
2018-05-24T05:41:10.482Z,59.68
2018-05-24T05:43:36.777Z,56.91
2018-05-24T05:46:03.064Z,56.17
2018-05-24T05:48:29.398Z,53.50
2018-05-24T05:50:55.693Z,55.10
2018-05-24T05:53:21.979Z,55.84
2018-05-24T05:55:48.267Z,54.87
2018-05-24T05:58:14.605Z,54.59
2018-05-24T06:00:40.893Z,54.43
2018-05-24T06:03:07.185Z,54.66
2018-05-24T06:05:33.489Z,53.79
2018-05-24T06:07:59.787Z,53.08
2018-05-24T06:10:26.092Z,51.87
2018-05-24T06:12:52.379Z,52.41
2018-05-24T06:15:18.668Z,52.55
2018-05-24T06:17:44.967Z,54.56
2018-05-24T06:20:11.257Z,56.00
2018-05-24T06:22:37.547Z,57.92
2018-05-24T06:25:03.842Z,59.27
2018-05-24T06:27:30.143Z,60.69
2018-05-24T06:29:56.436Z,61.29
2018-05-24T06:32:22.724Z,61.87
2018-05-24T06:34:49.014Z,61.54
2018-05-24T06:37:15.394Z,62.28
2018-05-24T06:39:41.609Z,62.38
2018-05-24T06:42:07.908Z,62.16
2018-05-24T06:44:34.200Z,62.35
2018-05-24T06:47:00.498Z,62.66
2018-05-24T06:49:26.798Z,62.62
2018-05-24T06:51:53.101Z,62.90
2018-05-24T06:54:19.399Z,63.26
2018-05-24T06:56:45.693Z,63.60
2018-05-24T06:59:11.990Z,64.06
2018-05-24T07:01:38.275Z,64.03
2018-05-24T07:04:04.563Z,63.61
2018-05-24T07:06:30.865Z,63.65
2018-05-24T07:08:57.147Z,63.62
2018-05-24T07:11:23.444Z,62.91
2018-05-24T07:13:49.746Z,62.71
2018-05-24T07:16:16.033Z,61.83
2018-05-24T07:18:42.361Z,61.14
2018-05-24T07:21:08.621Z,60.42
2018-05-24T07:23:34.916Z,59.81
2018-05-24T07:26:01.218Z,58.02
2018-05-24T07:28:27.503Z,56.70
2018-05-24T07:30:53.806Z,56.84
2018-05-24T07:33:20.098Z,55.57
2018-05-24T07:35:46.389Z,56.02
2018-05-24T07:38:12.689Z,54.83
2018-05-24T07:40:38.977Z,54.90
2018-05-24T07:43:05.270Z,56.04
2018-05-24T07:45:31.563Z,56.36
2018-05-24T07:47:57.851Z,56.60
2018-05-24T07:50:24.141Z,56.42
2018-05-24T07:52:50.430Z,58.35
2018-05-24T07:55:16.719Z,58.19
2018-05-24T07:57:43.013Z,57.86
2018-05-24T08:00:09.309Z,56.95
2018-05-24T08:02:35.592Z,56.07
2018-05-24T08:05:01.885Z,55.71
2018-05-24T08:07:28.179Z,56.78
2018-05-24T08:09:54.481Z,55.33
2018-05-24T08:12:20.768Z,52.12
2018-05-24T08:14:47.149Z,52.39
2018-05-24T08:17:13.360Z,50.28
2018-05-24T08:19:39.652Z,50.22
2018-05-24T08:22:05.941Z,51.03
2018-05-24T08:24:32.232Z,51.96
2018-05-24T08:26:58.528Z,49.27
2018-05-24T08:29:24.828Z,47.04
2018-05-24T08:31:51.116Z,46.83
2018-05-24T08:34:17.413Z,46.85
2018-05-24T08:36:43.752Z,44.85
2018-05-24T08:39:10.036Z,44.63
2018-05-24T08:41:36.371Z,46.03
2018-05-24T08:44:02.657Z,45.14
2018-05-24T08:46:28.947Z,43.87
2018-05-24T08:48:55.232Z,42.37
2018-05-24T08:51:21.528Z,44.09
2018-05-24T08:53:47.817Z,46.48
2018-05-24T08:56:14.119Z,44.23
2018-05-24T08:58:40.416Z,46.11
2018-05-24T09:01:06.720Z,47.02
2018-05-24T09:03:33.015Z,48.47
2018-05-24T09:05:59.305Z,47.99
2018-05-24T09:08:25.607Z,48.41
2018-05-24T09:10:51.926Z,49.44
2018-05-24T09:13:18.227Z,50.41
2018-05-24T09:15:44.519Z,50.44
2018-05-24T09:18:10.821Z,49.50
2018-05-24T09:20:37.122Z,48.71
2018-05-24T09:23:03.416Z,49.05
2018-05-24T09:25:29.710Z,49.08
2018-05-24T09:27:55.997Z,49.00
2018-05-24T09:30:22.308Z,48.98
2018-05-24T09:32:48.595Z,48.70
2018-05-24T09:35:14.885Z,47.94
2018-05-24T09:37:41.171Z,46.81
2018-05-24T09:40:07.461Z,45.82
2018-05-24T09:42:33.797Z,46.68
2018-05-24T09:45:00.088Z,47.14
2018-05-24T09:47:26.376Z,47.50
2018-05-24T09:49:52.667Z,49.01
2018-05-24T09:52:18.982Z,49.16
2018-05-24T09:54:45.272Z,50.63
2018-05-24T09:57:11.568Z,52.75
2018-05-24T09:59:37.863Z,54.10
2018-05-24T10:02:04.208Z,53.90
2018-05-24T10:04:30.572Z,53.93
2018-05-24T10:06:56.784Z,54.96
2018-05-24T10:09:23.076Z,54.77
2018-05-24T10:11:49.371Z,55.35
2018-05-24T10:14:15.665Z,55.33
2018-05-24T10:16:41.962Z,55.71
2018-05-24T10:19:08.247Z,57.15
2018-05-24T10:21:34.546Z,57.54
2018-05-24T10:24:00.841Z,59.49
2018-05-24T10:26:27.130Z,60.77
2018-05-24T10:28:53.439Z,61.58
2018-05-24T10:31:19.724Z,63.17
2018-05-24T10:33:46.021Z,64.16
2018-05-24T10:36:12.312Z,65.62
2018-05-24T10:38:38.615Z,64.94
2018-05-24T10:41:04.907Z,63.64
2018-05-24T10:43:31.229Z,66.66
2018-05-24T10:45:57.489Z,66.59
2018-05-24T10:48:23.779Z,66.72
2018-05-24T10:50:50.100Z,66.64
2018-05-24T10:53:16.362Z,67.08
2018-05-24T10:55:42.660Z,69.64
2018-05-24T10:58:08.945Z,68.33
2018-05-24T11:00:35.236Z,68.96
2018-05-24T11:03:01.621Z,67.86
2018-05-24T11:05:27.811Z,67.52
2018-05-24T11:07:54.125Z,68.14
2018-05-24T11:10:20.411Z,70.37
2018-05-24T11:12:46.705Z,71.65
2018-05-24T11:15:13.003Z,71.97
2018-05-24T11:17:39.293Z,73.32
2018-05-24T11:20:05.639Z,72.34
2018-05-24T11:22:31.926Z,72.92
2018-05-24T11:24:58.225Z,76.17
2018-05-24T11:27:24.515Z,77.55
2018-05-24T11:29:50.849Z,78.76
2018-05-24T11:32:17.135Z,77.38
2018-05-24T11:34:43.423Z,77.25
2018-05-24T11:37:09.867Z,78.01
2018-05-24T11:39:36.008Z,76.73
2018-05-24T11:42:02.304Z,76.20
2018-05-24T11:44:28.632Z,76.85
2018-05-24T11:46:54.925Z,77.18
2018-05-24T11:49:21.261Z,76.71
2018-05-24T11:51:47.551Z,78.11
2018-05-24T11:54:13.843Z,79.31
2018-05-24T11:56:40.132Z,81.07
2018-05-24T11:59:06.434Z,82.49
2018-05-24T12:01:32.718Z,81.58
2018-05-24T12:03:59.012Z,83.95
2018-05-24T12:06:25.313Z,84.23
2018-05-24T12:08:51.613Z,82.70
2018-05-24T12:11:17.915Z,85.31
2018-05-24T12:13:44.213Z,85.44
2018-05-24T12:16:10.501Z,86.27
2018-05-24T12:18:36.852Z,87.99
2018-05-24T12:21:03.142Z,89.73
2018-05-24T12:23:29.462Z,88.23
2018-05-24T12:25:55.777Z,90.04
2018-05-24T12:28:22.107Z,88.72
2018-05-24T12:30:48.396Z,88.98
2018-05-24T12:33:14.737Z,88.08
2018-05-24T12:35:41.102Z,89.88
2018-05-24T12:38:07.349Z,90.63
2018-05-24T12:40:33.635Z,90.66
2018-05-24T12:42:59.967Z,87.36
2018-05-24T12:45:26.252Z,91.01
2018-05-24T12:47:52.551Z,90.09
2018-05-24T12:50:18.838Z,87.02
2018-05-24T12:52:45.134Z,89.38
2018-05-24T12:55:11.469Z,89.56
2018-05-24T12:57:37.759Z,87.73
2018-05-24T13:00:04.515Z,86.76
2018-05-24T13:02:30.810Z,87.65
2018-05-24T13:04:57.141Z,87.26
2018-05-24T13:07:23.441Z,85.05
2018-05-24T13:09:49.745Z,87.29
2018-05-24T13:12:16.044Z,88.25
2018-05-24T13:14:42.336Z,85.51
2018-05-24T13:17:08.641Z,88.79
2018-05-24T13:19:34.932Z,85.15
2018-05-24T13:22:01.243Z,85.78
2018-05-24T13:24:27.549Z,85.85
2018-05-24T13:26:53.823Z,89.30
2018-05-24T13:29:20.125Z,88.46
2018-05-24T13:31:46.427Z,86.36
2018-05-24T13:34:12.712Z,85.86
2018-05-24T13:36:39.105Z,86.09
2018-05-24T13:39:05.376Z,83.25
2018-05-24T13:41:31.680Z,84.58
2018-05-24T13:43:58.257Z,84.38
2018-05-24T13:46:24.544Z,84.45
2018-05-24T13:48:50.839Z,82.16
2018-05-24T13:51:17.136Z,82.71
2018-05-24T13:53:43.429Z,80.76
2018-05-24T13:56:09.723Z,81.25
2018-05-24T13:58:36.019Z,77.53
2018-05-24T14:01:02.315Z,79.26
2018-05-24T14:03:28.611Z,78.66
2018-05-24T14:05:54.910Z,73.29
2018-05-24T14:08:21.222Z,71.89
2018-05-24T14:10:47.495Z,66.96
2018-05-24T14:13:13.789Z,67.18
2018-05-24T14:15:40.110Z,66.76
2018-05-24T14:18:06.452Z,64.72
2018-05-24T14:20:32.747Z,65.76
2018-05-24T14:22:59.041Z,66.39
2018-05-24T14:25:25.322Z,66.66
2018-05-24T14:27:51.612Z,64.32
2018-05-24T14:30:17.898Z,63.20
2018-05-24T14:32:44.239Z,63.08
2018-05-24T14:35:12.981Z,62.13
2018-05-24T14:37:39.277Z,61.52
2018-05-24T14:40:05.573Z,61.01
2018-05-24T14:42:31.881Z,61.35
2018-05-24T14:44:58.206Z,61.55
2018-05-24T14:47:24.508Z,61.98
2018-05-24T14:49:50.767Z,61.72
2018-05-24T14:52:17.097Z,62.01
2018-05-24T14:54:43.423Z,61.43
2018-05-24T14:57:09.753Z,61.86
2018-05-24T14:59:36.087Z,61.27
2018-05-24T15:02:02.379Z,62.64
2018-05-24T15:04:28.677Z,61.81
2018-05-24T15:06:55.140Z,61.90
2018-05-24T15:09:21.316Z,63.22
2018-05-24T15:11:47.647Z,63.59
2018-05-24T15:14:13.941Z,63.40
2018-05-24T15:16:40.231Z,63.97
2018-05-24T15:19:06.560Z,64.27
2018-05-24T15:21:32.892Z,64.38
2018-05-24T15:23:59.186Z,63.59
2018-05-24T15:26:25.482Z,64.03
2018-05-24T15:28:51.778Z,64.08
2018-05-24T15:31:18.103Z,63.31
2018-05-24T15:33:44.407Z,63.22
2018-05-24T15:36:10.744Z,64.11
2018-05-24T15:38:37.031Z,63.57
2018-05-24T15:41:03.368Z,64.89
2018-05-24T15:43:29.672Z,66.87
2018-05-24T15:45:55.964Z,67.45
2018-05-24T15:48:22.257Z,67.45
2018-05-24T15:50:48.553Z,68.15
2018-05-24T15:53:14.880Z,68.87
2018-05-24T15:55:41.175Z,69.19
2018-05-24T15:58:07.460Z,68.87
2018-05-24T16:00:33.756Z,68.29
2018-05-24T16:03:00.094Z,68.88
2018-05-24T16:05:26.386Z,69.51
2018-05-24T16:07:52.746Z,70.19
2018-05-24T16:10:19.036Z,70.49
2018-05-24T16:12:45.322Z,69.87
2018-05-24T16:15:11.607Z,71.08
2018-05-24T16:17:37.945Z,71.39
2018-05-24T16:20:04.239Z,71.60
2018-05-24T16:22:30.589Z,71.90
2018-05-24T16:24:56.875Z,71.93
2018-05-24T16:27:23.209Z,72.43
2018-05-24T16:29:49.536Z,72.72
2018-05-24T16:32:15.824Z,72.57
2018-05-24T16:34:42.117Z,72.68
2018-05-24T16:37:08.405Z,72.64
2018-05-24T16:39:34.699Z,72.58
2018-05-24T16:42:00.983Z,72.75
2018-05-24T16:44:27.281Z,72.91
2018-05-24T16:46:53.571Z,73.05
2018-05-24T16:49:19.912Z,73.12
2018-05-24T16:51:46.204Z,73.52
2018-05-24T16:54:12.511Z,73.56
2018-05-24T16:56:38.793Z,73.89
2018-05-24T16:59:05.080Z,74.17
2018-05-24T17:01:31.368Z,74.27
2018-05-24T17:03:57.661Z,74.91
2018-05-24T17:06:24.044Z,74.79
2018-05-24T17:08:50.273Z,75.12
2018-05-24T17:11:16.573Z,75.69
2018-05-24T17:13:42.909Z,75.99
2018-05-24T17:16:09.197Z,76.22
2018-05-24T17:18:35.529Z,76.18
2018-05-24T17:21:01.819Z,76.49
2018-05-24T17:23:28.149Z,76.37
2018-05-24T17:25:54.412Z,76.39
2018-05-24T17:28:20.708Z,76.50
2018-05-24T17:30:47.005Z,75.52
2018-05-24T17:33:13.298Z,75.41
2018-05-24T17:35:39.591Z,75.98
2018-05-24T17:38:05.891Z,75.62
2018-05-24T17:40:32.186Z,75.44
2018-05-24T17:42:58.476Z,75.55
2018-05-24T17:45:24.779Z,75.62
2018-05-24T17:47:51.066Z,75.90
2018-05-24T17:50:17.425Z,76.21
2018-05-24T17:52:43.712Z,76.54
2018-05-24T17:55:10.072Z,77.10
2018-05-24T17:57:36.355Z,77.60
2018-05-24T18:00:02.664Z,78.25
2018-05-24T18:02:28.950Z,77.85
2018-05-24T18:04:55.292Z,76.82
2018-05-24T18:07:21.622Z,76.98
2018-05-24T18:09:47.923Z,77.41
2018-05-24T18:12:14.221Z,77.34
2018-05-24T18:14:40.515Z,77.51
2018-05-24T18:17:06.818Z,77.76
2018-05-24T18:19:33.112Z,77.34
2018-05-24T18:21:59.458Z,77.13
2018-05-24T18:24:25.749Z,77.36
2018-05-24T18:26:52.043Z,77.44
2018-05-24T18:29:18.338Z,77.61
2018-05-24T18:31:44.632Z,77.91
2018-05-24T18:34:10.924Z,78.35
2018-05-24T18:36:37.241Z,78.53
2018-05-24T18:39:03.528Z,78.80
2018-05-24T18:41:29.830Z,78.78
2018-05-24T18:43:56.112Z,78.95
2018-05-24T18:46:22.424Z,79.07
2018-05-24T18:48:48.722Z,72.09
2018-05-24T18:51:15.065Z,70.20
2018-05-24T18:53:41.370Z,73.13
2018-05-24T18:56:07.738Z,75.44
2018-05-24T18:58:33.998Z,76.93
2018-05-24T19:01:00.285Z,78.02
2018-05-24T19:03:26.576Z,78.78
2018-05-24T19:05:52.870Z,79.39
2018-05-24T19:08:19.165Z,79.63
2018-05-24T19:10:45.457Z,79.39
2018-05-24T19:13:11.748Z,79.29
2018-05-24T19:15:38.036Z,79.07
2018-05-24T19:18:04.335Z,79.21
2018-05-24T19:20:30.615Z,79.40
2018-05-24T19:22:56.908Z,78.94
2018-05-24T19:25:23.205Z,79.18
2018-05-24T19:27:49.536Z,78.60
2018-05-24T19:30:15.829Z,78.01
2018-05-24T19:32:42.160Z,78.47
2018-05-24T19:35:08.453Z,78.62
2018-05-24T19:37:34.748Z,78.65
2018-05-24T19:40:01.040Z,79.12
2018-05-24T19:42:27.331Z,79.06
2018-05-24T19:44:53.619Z,79.16
2018-05-24T19:47:19.953Z,79.37
2018-05-24T19:49:46.247Z,79.23
2018-05-24T19:52:12.534Z,78.36
2018-05-24T19:54:38.829Z,78.53
2018-05-24T19:57:05.115Z,79.00
2018-05-24T19:59:31.422Z,78.96
2018-05-24T20:01:57.713Z,79.49
2018-05-24T20:04:24.011Z,80.05
2018-05-24T20:06:50.298Z,80.15
2018-05-24T20:09:16.589Z,80.35
2018-05-24T20:11:42.881Z,80.53
2018-05-24T20:14:09.176Z,80.46
2018-05-24T20:16:35.470Z,80.32
2018-05-24T20:19:01.806Z,80.24
2018-05-24T20:21:28.092Z,80.78
2018-05-24T20:23:54.442Z,81.20
2018-05-24T20:26:20.741Z,81.31
2018-05-24T20:28:47.029Z,81.27
2018-05-24T20:31:13.368Z,81.25
2018-05-24T20:33:39.660Z,81.62
2018-05-24T20:36:05.949Z,81.37
2018-05-24T20:38:32.247Z,81.37
2018-05-24T20:40:58.537Z,81.68
2018-05-24T20:43:24.877Z,81.92
2018-05-24T20:45:51.226Z,81.98
2018-05-24T20:48:17.522Z,82.11
2018-05-24T20:50:43.868Z,82.35
2018-05-24T20:53:10.159Z,82.21
2018-05-24T20:55:36.493Z,82.24
2018-05-24T20:58:02.788Z,82.19
2018-05-24T21:00:29.165Z,81.85
2018-05-24T21:02:55.490Z,81.83
2018-05-24T21:05:21.780Z,81.81
2018-05-24T21:07:48.113Z,81.89
2018-05-24T21:10:14.405Z,81.96
2018-05-24T21:12:40.700Z,82.15
2018-05-24T21:15:06.993Z,81.90
2018-05-24T21:17:33.321Z,82.11
2018-05-24T21:19:59.616Z,81.92
2018-05-24T21:22:25.948Z,81.71
2018-05-24T21:24:52.239Z,81.54
2018-05-24T21:27:18.532Z,81.82
2018-05-24T21:29:44.831Z,81.33
2018-05-24T21:32:11.127Z,81.08
2018-05-24T21:34:37.463Z,81.07
2018-05-24T21:37:03.758Z,80.89
2018-05-24T21:39:30.046Z,80.81
2018-05-24T21:41:56.348Z,80.90
2018-05-24T21:44:22.639Z,81.08
2018-05-24T21:46:48.969Z,81.02
2018-05-24T21:49:21.622Z,81.01
2018-05-24T21:51:41.935Z,80.91
2018-05-24T21:54:08.231Z,80.55
2018-05-24T21:56:34.528Z,80.56
2018-05-24T21:59:00.816Z,80.93
2018-05-24T22:01:27.105Z,80.84
2018-05-24T22:03:53.393Z,80.82
2018-05-24T22:06:19.734Z,80.83
2018-05-24T22:08:46.027Z,80.84
2018-05-24T22:11:12.316Z,81.02
2018-05-24T22:13:38.609Z,80.83
2018-05-24T22:16:04.908Z,80.79
2018-05-24T22:18:31.195Z,81.13
2018-05-24T22:20:57.531Z,81.64
2018-05-24T22:23:23.830Z,81.93
2018-05-24T22:25:50.129Z,82.24
2018-05-24T22:28:16.426Z,83.19
2018-05-24T22:30:42.741Z,83.30
2018-05-24T22:33:09.035Z,82.56
2018-05-24T22:35:35.335Z,82.02
2018-05-24T22:38:01.625Z,81.33
2018-05-24T22:40:27.916Z,82.26
2018-05-24T22:42:54.215Z,82.55
2018-05-24T22:45:20.509Z,82.90
2018-05-24T22:47:46.817Z,83.08
2018-05-24T22:50:13.107Z,82.37
2018-05-24T22:52:39.387Z,82.18
2018-05-24T22:55:05.685Z,82.83
2018-05-24T22:57:31.983Z,82.58
2018-05-24T22:59:58.275Z,83.22
2018-05-24T23:02:24.583Z,84.18
2018-05-24T23:04:50.876Z,83.68
2018-05-24T23:07:17.169Z,83.95
2018-05-24T23:09:43.460Z,83.92
2018-05-24T23:12:09.757Z,84.32
2018-05-24T23:14:36.055Z,84.24
2018-05-24T23:17:02.344Z,83.71
2018-05-24T23:19:28.637Z,84.03
2018-05-24T23:21:54.936Z,83.73
2018-05-24T23:24:21.264Z,83.74
2018-05-24T23:26:47.560Z,83.05
2018-05-24T23:29:13.900Z,82.83
2018-05-24T23:31:40.186Z,83.29
2018-05-24T23:34:06.484Z,83.82
2018-05-24T23:36:32.784Z,84.37
2018-05-24T23:38:59.080Z,85.24
2018-05-24T23:41:25.379Z,85.04
2018-05-24T23:43:51.708Z,84.15
2018-05-24T23:46:17.999Z,85.04
2018-05-24T23:48:44.283Z,85.49
2018-05-24T23:51:10.571Z,85.03
2018-05-24T23:53:36.876Z,85.28
2018-05-24T23:56:03.163Z,85.42
2018-05-24T23:58:29.456Z,85.69
